sensor_id;sensor_type;location;lat;lon;timestamp;P1;durP1;ratioP1;P2;durP2;ratioP2
1785;SDS011;890;48.158;11.540;2023-06-26T00:00:19;1061.93;;;994.80;;
1785;SDS011;890;48.158;11.540;2023-06-26T00:02:45;1053.00;;;989.40;;
1785;SDS011;890;48.158;11.540;2023-06-26T00:05:10;1054.90;;;991.07;;
1785;SDS011;890;48.158;11.540;2023-06-26T00:07:36;1060.77;;;993.63;;
1785;SDS011;890;48.158;11.540;2023-06-26T00:10:02;1063.23;;;996.03;;
1785;SDS011;890;48.158;11.540;2023-06-26T00:12:28;1062.13;;;995.03;;
1785;SDS011;890;48.158;11.540;2023-06-26T00:14:55;1083.27;;;999.90;;
1785;SDS011;890;48.158;11.540;2023-06-26T00:17:20;1078.70;;;999.90;;
1785;SDS011;890;48.158;11.540;2023-06-26T00:19:46;1082.33;;;999.90;;
1785;SDS011;890;48.158;11.540;2023-06-26T00:22:12;1103.27;;;999.90;;
1785;SDS011;890;48.158;11.540;2023-06-26T00:24:38;1094.80;;;999.90;;
1785;SDS011;890;48.158;11.540;2023-06-26T00:27:03;1106.43;;;999.90;;
1785;SDS011;890;48.158;11.540;2023-06-26T00:29:29;1110.33;;;999.90;;
1785;SDS011;890;48.158;11.540;2023-06-26T00:31:54;1068.23;;;999.33;;
1785;SDS011;890;48.158;11.540;2023-06-26T00:34:20;1085.53;;;999.90;;
1785;SDS011;890;48.158;11.540;2023-06-26T00:36:46;1081.77;;;999.90;;
1785;SDS011;890;48.158;11.540;2023-06-26T00:39:11;1077.83;;;999.90;;
1785;SDS011;890;48.158;11.540;2023-06-26T00:41:37;1091.97;;;999.90;;
1785;SDS011;890;48.158;11.540;2023-06-26T00:44:04;1053.13;;;989.73;;
1785;SDS011;890;48.158;11.540;2023-06-26T00:46:30;1068.77;;;998.13;;
1785;SDS011;890;48.158;11.540;2023-06-26T00:48:56;1091.87;;;999.90;;
1785;SDS011;890;48.158;11.540;2023-06-26T00:51:25;1090.80;;;999.90;;
1785;SDS011;890;48.158;11.540;2023-06-26T00:53:52;1039.40;;;978.43;;
1785;SDS011;890;48.158;11.540;2023-06-26T00:56:18;1079.87;;;999.90;;
1785;SDS011;890;48.158;11.540;2023-06-26T00:58:44;1067.63;;;997.00;;
1785;SDS011;890;48.158;11.540;2023-06-26T01:01:11;1078.43;;;999.90;;
1785;SDS011;890;48.158;11.540;2023-06-26T01:03:42;1056.97;;;992.23;;
1785;SDS011;890;48.158;11.540;2023-06-26T01:06:09;1061.70;;;995.50;;
1785;SDS011;890;48.158;11.540;2023-06-26T01:08:38;1097.70;;;999.90;;
1785;SDS011;890;48.158;11.540;2023-06-26T01:11:07;1118.07;;;999.90;;
1785;SDS011;890;48.158;11.540;2023-06-26T01:13:34;1101.00;;;999.90;;
1785;SDS011;890;48.158;11.540;2023-06-26T01:16:00;1107.07;;;999.90;;
1785;SDS011;890;48.158;11.540;2023-06-26T01:18:27;1097.20;;;999.90;;
1785;SDS011;890;48.158;11.540;2023-06-26T01:20:55;1096.47;;;999.90;;
1785;SDS011;890;48.158;11.540;2023-06-26T01:23:35;1109.37;;;999.90;;
1785;SDS011;890;48.158;11.540;2023-06-26T01:26:22;1086.60;;;999.90;;
1785;SDS011;890;48.158;11.540;2023-06-26T01:28:51;1088.77;;;999.90;;
1785;SDS011;890;48.158;11.540;2023-06-26T01:31:19;1093.13;;;999.90;;
1785;SDS011;890;48.158;11.540;2023-06-26T01:33:45;1079.93;;;999.90;;
1785;SDS011;890;48.158;11.540;2023-06-26T01:36:11;1071.07;;;998.73;;
1785;SDS011;890;48.158;11.540;2023-06-26T01:38:37;1021.13;;;961.53;;
1785;SDS011;890;48.158;11.540;2023-06-26T01:41:03;1058.30;;;993.33;;
1785;SDS011;890;48.158;11.540;2023-06-26T01:45:58;1056.27;;;992.33;;
1785;SDS011;890;48.158;11.540;2023-06-26T01:48:35;1051.03;;;988.77;;
1785;SDS011;890;48.158;11.540;2023-06-26T01:51:08;1054.20;;;990.67;;
1785;SDS011;890;48.158;11.540;2023-06-26T01:53:40;1045.73;;;984.17;;
1785;SDS011;890;48.158;11.540;2023-06-26T01:56:12;1027.23;;;967.03;;
1785;SDS011;890;48.158;11.540;2023-06-26T01:58:41;1029.47;;;968.90;;
1785;SDS011;890;48.158;11.540;2023-06-26T02:01:10;1040.07;;;978.60;;
1785;SDS011;890;48.158;11.540;2023-06-26T02:03:37;1063.73;;;996.40;;
1785;SDS011;890;48.158;11.540;2023-06-26T02:06:02;1058.77;;;994.03;;
1785;SDS011;890;48.158;11.540;2023-06-26T02:08:28;1072.43;;;999.90;;
1785;SDS011;890;48.158;11.540;2023-06-26T02:10:54;1056.97;;;993.23;;
1785;SDS011;890;48.158;11.540;2023-06-26T02:13:19;1047.37;;;984.90;;
1785;SDS011;890;48.158;11.540;2023-06-26T02:15:45;1063.17;;;996.50;;
1785;SDS011;890;48.158;11.540;2023-06-26T02:18:10;1079.70;;;999.90;;
1785;SDS011;890;48.158;11.540;2023-06-26T02:20:36;1024.07;;;963.70;;
1785;SDS011;890;48.158;11.540;2023-06-26T02:23:02;1050.63;;;988.97;;
1785;SDS011;890;48.158;11.540;2023-06-26T02:25:27;1065.23;;;997.53;;
1785;SDS011;890;48.158;11.540;2023-06-26T02:27:53;1046.87;;;984.87;;
1785;SDS011;890;48.158;11.540;2023-06-26T02:30:18;1042.57;;;981.30;;
1785;SDS011;890;48.158;11.540;2023-06-26T02:32:44;1043.10;;;981.23;;
1785;SDS011;890;48.158;11.540;2023-06-26T02:35:10;1029.27;;;968.87;;
1785;SDS011;890;48.158;11.540;2023-06-26T02:37:36;1040.40;;;979.13;;
1785;SDS011;890;48.158;11.540;2023-06-26T02:40:02;1076.77;;;999.90;;
1785;SDS011;890;48.158;11.540;2023-06-26T02:42:28;1093.97;;;999.90;;
1785;SDS011;890;48.158;11.540;2023-06-26T02:44:54;1076.43;;;999.90;;
1785;SDS011;890;48.158;11.540;2023-06-26T02:47:20;1043.90;;;982.40;;
1785;SDS011;890;48.158;11.540;2023-06-26T02:49:46;1034.40;;;973.50;;
1785;SDS011;890;48.158;11.540;2023-06-26T02:52:11;1060.10;;;995.83;;
1785;SDS011;890;48.158;11.540;2023-06-26T02:54:37;1013.60;;;953.60;;
1785;SDS011;890;48.158;11.540;2023-06-26T02:57:02;1082.87;;;999.90;;
1785;SDS011;890;48.158;11.540;2023-06-26T02:59:28;1065.47;;;998.37;;
1785;SDS011;890;48.158;11.540;2023-06-26T03:01:54;1038.60;;;976.73;;
1785;SDS011;890;48.158;11.540;2023-06-26T03:04:19;1062.80;;;996.87;;
1785;SDS011;890;48.158;11.540;2023-06-26T03:10:08;1051.77;;;989.40;;
1785;SDS011;890;48.158;11.540;2023-06-26T03:12:34;1060.90;;;996.13;;
1785;SDS011;890;48.158;11.540;2023-06-26T03:15:00;1046.83;;;984.47;;
1785;SDS011;890;48.158;11.540;2023-06-26T03:17:25;1017.60;;;957.80;;
1785;SDS011;890;48.158;11.540;2023-06-26T03:19:51;1018.70;;;958.57;;
1785;SDS011;890;48.158;11.540;2023-06-26T03:22:16;1009.83;;;950.30;;
1785;SDS011;890;48.158;11.540;2023-06-26T03:28:04;1062.23;;;997.07;;
1785;SDS011;890;48.158;11.540;2023-06-26T03:30:29;1047.37;;;985.30;;
1785;SDS011;890;48.158;11.540;2023-06-26T03:32:55;1032.20;;;971.03;;
1785;SDS011;890;48.158;11.540;2023-06-26T03:35:21;1026.00;;;965.33;;
1785;SDS011;890;48.158;11.540;2023-06-26T03:37:48;1045.90;;;983.60;;
1785;SDS011;890;48.158;11.540;2023-06-26T03:40:14;1046.80;;;985.20;;
1785;SDS011;890;48.158;11.540;2023-06-26T03:42:39;1026.33;;;966.27;;
1785;SDS011;890;48.158;11.540;2023-06-26T03:45:05;1055.60;;;992.33;;
1785;SDS011;890;48.158;11.540;2023-06-26T03:47:31;1042.20;;;980.23;;
1785;SDS011;890;48.158;11.540;2023-06-26T03:49:56;1044.73;;;983.43;;
1785;SDS011;890;48.158;11.540;2023-06-26T03:52:22;1030.33;;;969.43;;
1785;SDS011;890;48.158;11.540;2023-06-26T03:54:48;1030.50;;;970.13;;
1785;SDS011;890;48.158;11.540;2023-06-26T03:57:14;1035.80;;;974.03;;
1785;SDS011;890;48.158;11.540;2023-06-26T03:59:41;1039.53;;;978.83;;
1785;SDS011;890;48.158;11.540;2023-06-26T04:02:31;1018.87;;;959.10;;
1785;SDS011;890;48.158;11.540;2023-06-26T04:04:58;1019.00;;;959.13;;
1785;SDS011;890;48.158;11.540;2023-06-26T04:07:25;1026.03;;;965.80;;
1785;SDS011;890;48.158;11.540;2023-06-26T04:09:51;1055.37;;;992.20;;
1785;SDS011;890;48.158;11.540;2023-06-26T04:12:16;1037.73;;;976.07;;
1785;SDS011;890;48.158;11.540;2023-06-26T04:14:42;1045.80;;;984.33;;
1785;SDS011;890;48.158;11.540;2023-06-26T04:17:08;1037.90;;;976.73;;
1785;SDS011;890;48.158;11.540;2023-06-26T04:19:34;1016.47;;;957.17;;
1785;SDS011;890;48.158;11.540;2023-06-26T04:22:01;1015.07;;;955.50;;
1785;SDS011;890;48.158;11.540;2023-06-26T04:24:26;1047.03;;;985.27;;
1785;SDS011;890;48.158;11.540;2023-06-26T04:26:52;1032.43;;;971.77;;
1785;SDS011;890;48.158;11.540;2023-06-26T04:29:18;1025.13;;;964.93;;
1785;SDS011;890;48.158;11.540;2023-06-26T04:31:43;1026.00;;;965.93;;
1785;SDS011;890;48.158;11.540;2023-06-26T04:34:11;1040.80;;;979.33;;
1785;SDS011;890;48.158;11.540;2023-06-26T04:36:38;1032.93;;;971.93;;
1785;SDS011;890;48.158;11.540;2023-06-26T04:39:04;1039.63;;;978.87;;
1785;SDS011;890;48.158;11.540;2023-06-26T04:41:30;1049.30;;;987.40;;
1785;SDS011;890;48.158;11.540;2023-06-26T04:43:55;1051.13;;;988.90;;
1785;SDS011;890;48.158;11.540;2023-06-26T04:46:21;1034.70;;;974.07;;
1785;SDS011;890;48.158;11.540;2023-06-26T04:48:46;1044.87;;;983.37;;
1785;SDS011;890;48.158;11.540;2023-06-26T04:51:12;1037.23;;;976.37;;
1785;SDS011;890;48.158;11.540;2023-06-26T04:53:38;1039.63;;;978.57;;
1785;SDS011;890;48.158;11.540;2023-06-26T04:56:03;1018.27;;;958.20;;
1785;SDS011;890;48.158;11.540;2023-06-26T04:58:29;1051.00;;;988.23;;
1785;SDS011;890;48.158;11.540;2023-06-26T05:00:55;1052.00;;;989.60;;
1785;SDS011;890;48.158;11.540;2023-06-26T05:03:21;1054.57;;;990.77;;
1785;SDS011;890;48.158;11.540;2023-06-26T05:05:47;1057.70;;;993.17;;
1785;SDS011;890;48.158;11.540;2023-06-26T05:08:13;1065.80;;;996.73;;
1785;SDS011;890;48.158;11.540;2023-06-26T05:10:42;1046.53;;;985.13;;
1785;SDS011;890;48.158;11.540;2023-06-26T05:13:08;1077.73;;;999.90;;
1785;SDS011;890;48.158;11.540;2023-06-26T05:15:34;1061.47;;;994.63;;
1785;SDS011;890;48.158;11.540;2023-06-26T05:17:59;1053.07;;;989.90;;
1785;SDS011;890;48.158;11.540;2023-06-26T05:20:25;1065.77;;;996.23;;
1785;SDS011;890;48.158;11.540;2023-06-26T05:22:51;1085.73;;;999.90;;
1785;SDS011;890;48.158;11.540;2023-06-26T05:25:17;1102.43;;;999.90;;
1785;SDS011;890;48.158;11.540;2023-06-26T05:27:46;1083.53;;;999.90;;
1785;SDS011;890;48.158;11.540;2023-06-26T05:30:13;1051.90;;;989.50;;
1785;SDS011;890;48.158;11.540;2023-06-26T05:32:39;1070.30;;;998.43;;
1785;SDS011;890;48.158;11.540;2023-06-26T05:35:05;1057.97;;;993.50;;
1785;SDS011;890;48.158;11.540;2023-06-26T05:37:32;1071.33;;;998.63;;
1785;SDS011;890;48.158;11.540;2023-06-26T05:39:58;1090.67;;;999.90;;
1785;SDS011;890;48.158;11.540;2023-06-26T05:42:24;1113.33;;;999.90;;
1785;SDS011;890;48.158;11.540;2023-06-26T05:44:51;1101.93;;;999.90;;
1785;SDS011;890;48.158;11.540;2023-06-26T05:47:16;1074.63;;;999.90;;
1785;SDS011;890;48.158;11.540;2023-06-26T05:49:42;1095.17;;;999.90;;
1785;SDS011;890;48.158;11.540;2023-06-26T05:52:08;1103.77;;;999.90;;
1785;SDS011;890;48.158;11.540;2023-06-26T05:54:34;1098.67;;;999.90;;
1785;SDS011;890;48.158;11.540;2023-06-26T05:57:00;1102.97;;;999.90;;
1785;SDS011;890;48.158;11.540;2023-06-26T05:59:26;1101.97;;;999.90;;
1785;SDS011;890;48.158;11.540;2023-06-26T06:01:53;1092.97;;;999.90;;
1785;SDS011;890;48.158;11.540;2023-06-26T06:04:19;1094.67;;;999.90;;
1785;SDS011;890;48.158;11.540;2023-06-26T06:06:44;1097.27;;;999.90;;
1785;SDS011;890;48.158;11.540;2023-06-26T06:09:10;1102.63;;;999.90;;
1785;SDS011;890;48.158;11.540;2023-06-26T06:11:35;1090.93;;;999.90;;
1785;SDS011;890;48.158;11.540;2023-06-26T06:14:02;1106.93;;;999.90;;
1785;SDS011;890;48.158;11.540;2023-06-26T06:16:27;1083.00;;;999.90;;
1785;SDS011;890;48.158;11.540;2023-06-26T06:18:54;1101.63;;;999.90;;
1785;SDS011;890;48.158;11.540;2023-06-26T06:21:20;1113.37;;;999.90;;
1785;SDS011;890;48.158;11.540;2023-06-26T06:23:45;1119.50;;;999.90;;
1785;SDS011;890;48.158;11.540;2023-06-26T06:26:11;1103.17;;;999.90;;
1785;SDS011;890;48.158;11.540;2023-06-26T06:28:37;1112.13;;;999.90;;
1785;SDS011;890;48.158;11.540;2023-06-26T06:31:04;1108.60;;;999.90;;
1785;SDS011;890;48.158;11.540;2023-06-26T06:33:29;1105.10;;;999.90;;
1785;SDS011;890;48.158;11.540;2023-06-26T06:35:55;1106.17;;;999.90;;
1785;SDS011;890;48.158;11.540;2023-06-26T06:38:21;1119.37;;;999.90;;
1785;SDS011;890;48.158;11.540;2023-06-26T06:40:46;1108.00;;;999.90;;
1785;SDS011;890;48.158;11.540;2023-06-26T06:43:12;1113.00;;;999.90;;
1785;SDS011;890;48.158;11.540;2023-06-26T06:45:37;1109.33;;;999.90;;
1785;SDS011;890;48.158;11.540;2023-06-26T06:48:03;1114.70;;;999.90;;
1785;SDS011;890;48.158;11.540;2023-06-26T06:50:29;1133.50;;;999.90;;
1785;SDS011;890;48.158;11.540;2023-06-26T06:52:56;1136.23;;;999.90;;
1785;SDS011;890;48.158;11.540;2023-06-26T06:55:22;1137.23;;;999.90;;
1785;SDS011;890;48.158;11.540;2023-06-26T06:57:48;1137.43;;;999.90;;
1785;SDS011;890;48.158;11.540;2023-06-26T07:00:15;1128.27;;;999.90;;
1785;SDS011;890;48.158;11.540;2023-06-26T07:02:44;1149.80;;;999.90;;
1785;SDS011;890;48.158;11.540;2023-06-26T07:05:11;1138.23;;;999.90;;
1785;SDS011;890;48.158;11.540;2023-06-26T07:07:37;1139.30;;;999.90;;
1785;SDS011;890;48.158;11.540;2023-06-26T07:10:04;1138.77;;;999.90;;
1785;SDS011;890;48.158;11.540;2023-06-26T07:12:32;1152.10;;;999.90;;
1785;SDS011;890;48.158;11.540;2023-06-26T07:14:59;1162.20;;;999.90;;
1785;SDS011;890;48.158;11.540;2023-06-26T07:17:25;1160.87;;;999.90;;
1785;SDS011;890;48.158;11.540;2023-06-26T07:19:51;1160.53;;;999.90;;
1785;SDS011;890;48.158;11.540;2023-06-26T07:22:17;1165.20;;;999.90;;
1785;SDS011;890;48.158;11.540;2023-06-26T07:24:45;1176.53;;;999.90;;
1785;SDS011;890;48.158;11.540;2023-06-26T07:27:11;1187.03;;;999.90;;
1785;SDS011;890;48.158;11.540;2023-06-26T07:29:36;1171.90;;;999.90;;
1785;SDS011;890;48.158;11.540;2023-06-26T07:32:02;1171.17;;;999.90;;
1785;SDS011;890;48.158;11.540;2023-06-26T07:34:28;1165.03;;;999.90;;
1785;SDS011;890;48.158;11.540;2023-06-26T07:36:53;1165.10;;;999.90;;
1785;SDS011;890;48.158;11.540;2023-06-26T07:39:19;1173.00;;;999.90;;
1785;SDS011;890;48.158;11.540;2023-06-26T07:41:44;1181.07;;;999.90;;
1785;SDS011;890;48.158;11.540;2023-06-26T07:44:10;1174.03;;;999.90;;
1785;SDS011;890;48.158;11.540;2023-06-26T07:46:35;1175.93;;;999.90;;
1785;SDS011;890;48.158;11.540;2023-06-26T07:49:01;1172.43;;;999.90;;
1785;SDS011;890;48.158;11.540;2023-06-26T07:51:26;1171.33;;;999.90;;
1785;SDS011;890;48.158;11.540;2023-06-26T07:53:54;1170.97;;;999.90;;
1785;SDS011;890;48.158;11.540;2023-06-26T07:56:19;1162.67;;;999.90;;
1785;SDS011;890;48.158;11.540;2023-06-26T07:58:45;1166.00;;;999.90;;
1785;SDS011;890;48.158;11.540;2023-06-26T08:01:11;1168.90;;;999.90;;
1785;SDS011;890;48.158;11.540;2023-06-26T08:03:36;1166.40;;;999.90;;
1785;SDS011;890;48.158;11.540;2023-06-26T08:06:02;1176.57;;;999.90;;
1785;SDS011;890;48.158;11.540;2023-06-26T08:08:28;1186.83;;;999.90;;
1785;SDS011;890;48.158;11.540;2023-06-26T08:10:54;1178.00;;;999.90;;
1785;SDS011;890;48.158;11.540;2023-06-26T08:13:19;1188.73;;;999.90;;
1785;SDS011;890;48.158;11.540;2023-06-26T08:15:45;1180.50;;;999.90;;
1785;SDS011;890;48.158;11.540;2023-06-26T08:18:11;1200.83;;;999.90;;
1785;SDS011;890;48.158;11.540;2023-06-26T08:20:36;1189.23;;;999.90;;
1785;SDS011;890;48.158;11.540;2023-06-26T08:23:03;1197.47;;;999.90;;
1785;SDS011;890;48.158;11.540;2023-06-26T08:25:29;1206.73;;;999.90;;
1785;SDS011;890;48.158;11.540;2023-06-26T08:27:55;1195.40;;;999.90;;
1785;SDS011;890;48.158;11.540;2023-06-26T08:30:21;1208.57;;;999.90;;
1785;SDS011;890;48.158;11.540;2023-06-26T08:32:47;1201.00;;;999.90;;
1785;SDS011;890;48.158;11.540;2023-06-26T08:35:13;1196.07;;;999.90;;
1785;SDS011;890;48.158;11.540;2023-06-26T08:37:38;1191.40;;;999.90;;
1785;SDS011;890;48.158;11.540;2023-06-26T08:40:05;1193.67;;;999.90;;
1785;SDS011;890;48.158;11.540;2023-06-26T08:42:33;1184.77;;;999.90;;
1785;SDS011;890;48.158;11.540;2023-06-26T08:44:59;1209.27;;;999.90;;
1785;SDS011;890;48.158;11.540;2023-06-26T08:47:25;1201.03;;;999.90;;
1785;SDS011;890;48.158;11.540;2023-06-26T08:49:53;1205.20;;;999.90;;
1785;SDS011;890;48.158;11.540;2023-06-26T08:52:30;1186.60;;;999.90;;
1785;SDS011;890;48.158;11.540;2023-06-26T08:55:01;1196.47;;;999.90;;
1785;SDS011;890;48.158;11.540;2023-06-26T08:57:31;1214.67;;;999.90;;
1785;SDS011;890;48.158;11.540;2023-06-26T08:59:57;1213.40;;;999.90;;
1785;SDS011;890;48.158;11.540;2023-06-26T09:02:23;1227.73;;;999.90;;
1785;SDS011;890;48.158;11.540;2023-06-26T09:04:49;1218.83;;;999.90;;
1785;SDS011;890;48.158;11.540;2023-06-26T09:07:16;1200.53;;;999.90;;
1785;SDS011;890;48.158;11.540;2023-06-26T09:09:42;1208.83;;;999.90;;
1785;SDS011;890;48.158;11.540;2023-06-26T09:12:08;1207.30;;;999.90;;
1785;SDS011;890;48.158;11.540;2023-06-26T09:14:34;1217.33;;;999.90;;
1785;SDS011;890;48.158;11.540;2023-06-26T09:17:01;1223.70;;;999.90;;
1785;SDS011;890;48.158;11.540;2023-06-26T09:19:27;1207.53;;;999.90;;
1785;SDS011;890;48.158;11.540;2023-06-26T09:21:52;1215.63;;;999.90;;
1785;SDS011;890;48.158;11.540;2023-06-26T09:24:20;1233.10;;;999.90;;
1785;SDS011;890;48.158;11.540;2023-06-26T09:26:47;1241.70;;;999.90;;
1785;SDS011;890;48.158;11.540;2023-06-26T09:29:13;1231.23;;;999.90;;
1785;SDS011;890;48.158;11.540;2023-06-26T09:31:39;1214.03;;;999.90;;
1785;SDS011;890;48.158;11.540;2023-06-26T09:34:05;1234.53;;;999.90;;
1785;SDS011;890;48.158;11.540;2023-06-26T09:36:31;1213.40;;;999.90;;
1785;SDS011;890;48.158;11.540;2023-06-26T09:39:01;1217.77;;;999.90;;
1785;SDS011;890;48.158;11.540;2023-06-26T09:41:29;1244.73;;;999.90;;
1785;SDS011;890;48.158;11.540;2023-06-26T09:43:57;1225.70;;;999.90;;
1785;SDS011;890;48.158;11.540;2023-06-26T09:46:27;1251.87;;;999.90;;
1785;SDS011;890;48.158;11.540;2023-06-26T09:49:04;1241.70;;;999.90;;
1785;SDS011;890;48.158;11.540;2023-06-26T09:51:35;1252.17;;;999.90;;
1785;SDS011;890;48.158;11.540;2023-06-26T09:54:02;1239.43;;;999.90;;
1785;SDS011;890;48.158;11.540;2023-06-26T09:56:29;1257.53;;;999.90;;
1785;SDS011;890;48.158;11.540;2023-06-26T09:58:55;1267.27;;;999.90;;
1785;SDS011;890;48.158;11.540;2023-06-26T10:01:23;1260.13;;;999.90;;
1785;SDS011;890;48.158;11.540;2023-06-26T10:03:49;1245.83;;;999.90;;
1785;SDS011;890;48.158;11.540;2023-06-26T10:06:15;1273.90;;;999.90;;
1785;SDS011;890;48.158;11.540;2023-06-26T10:08:54;1274.90;;;999.90;;
1785;SDS011;890;48.158;11.540;2023-06-26T10:11:21;1292.57;;;999.90;;
1785;SDS011;890;48.158;11.540;2023-06-26T10:13:50;1295.83;;;999.90;;
1785;SDS011;890;48.158;11.540;2023-06-26T10:16:29;1313.43;;;999.90;;
1785;SDS011;890;48.158;11.540;2023-06-26T10:18:58;1158.83;;;999.90;;
1785;SDS011;890;48.158;11.540;2023-06-26T10:21:28;880.70;;;827.00;;
1785;SDS011;890;48.158;11.540;2023-06-26T10:23:56;720.50;;;672.03;;
1785;SDS011;890;48.158;11.540;2023-06-26T10:26:22;734.93;;;686.27;;
1785;SDS011;890;48.158;11.540;2023-06-26T10:28:50;740.90;;;692.00;;
1785;SDS011;890;48.158;11.540;2023-06-26T10:31:22;765.90;;;716.73;;
1785;SDS011;890;48.158;11.540;2023-06-26T10:33:51;775.23;;;725.53;;
1785;SDS011;890;48.158;11.540;2023-06-26T10:36:18;792.13;;;742.47;;
1785;SDS011;890;48.158;11.540;2023-06-26T10:38:56;758.97;;;710.53;;
1785;SDS011;890;48.158;11.540;2023-06-26T10:41:24;788.73;;;739.43;;
1785;SDS011;890;48.158;11.540;2023-06-26T10:43:51;800.70;;;750.70;;
1785;SDS011;890;48.158;11.540;2023-06-26T10:46:47;797.07;;;747.40;;
1785;SDS011;890;48.158;11.540;2023-06-26T10:49:14;810.23;;;760.23;;
1785;SDS011;890;48.158;11.540;2023-06-26T10:51:45;805.47;;;755.83;;
1785;SDS011;890;48.158;11.540;2023-06-26T10:54:14;804.13;;;754.97;;
1785;SDS011;890;48.158;11.540;2023-06-26T10:56:44;791.80;;;742.60;;
1785;SDS011;890;48.158;11.540;2023-06-26T10:59:20;794.87;;;745.83;;
1785;SDS011;890;48.158;11.540;2023-06-26T11:01:57;780.90;;;731.83;;
1785;SDS011;890;48.158;11.540;2023-06-26T11:04:40;737.73;;;690.13;;
1785;SDS011;890;48.158;11.540;2023-06-26T11:07:22;720.60;;;673.10;;
1785;SDS011;890;48.158;11.540;2023-06-26T11:12:39;1084.10;;;999.90;;
1785;SDS011;890;48.158;11.540;2023-06-26T11:15:07;1115.90;;;999.90;;
1785;SDS011;890;48.158;11.540;2023-06-26T11:17:40;957.73;;;901.70;;
1785;SDS011;890;48.158;11.540;2023-06-26T11:20:07;1005.63;;;946.73;;
1785;SDS011;890;48.158;11.540;2023-06-26T11:22:38;729.47;;;681.90;;
1785;SDS011;890;48.158;11.540;2023-06-26T11:25:04;758.33;;;709.77;;
1785;SDS011;890;48.158;11.540;2023-06-26T11:27:32;770.70;;;720.53;;
1785;SDS011;890;48.158;11.540;2023-06-26T11:30:03;753.20;;;705.20;;
1785;SDS011;890;48.158;11.540;2023-06-26T11:32:33;749.83;;;701.97;;
1785;SDS011;890;48.158;11.540;2023-06-26T11:34:59;728.20;;;680.83;;
1785;SDS011;890;48.158;11.540;2023-06-26T11:37:25;722.10;;;674.73;;
1785;SDS011;890;48.158;11.540;2023-06-26T11:39:51;791.53;;;741.87;;
1785;SDS011;890;48.158;11.540;2023-06-26T11:42:19;1072.20;;;999.90;;
1785;SDS011;890;48.158;11.540;2023-06-26T11:44:45;1005.10;;;946.30;;
1785;SDS011;890;48.158;11.540;2023-06-26T11:47:15;983.33;;;926.20;;
1785;SDS011;890;48.158;11.540;2023-06-26T11:49:42;1081.27;;;999.90;;
1785;SDS011;890;48.158;11.540;2023-06-26T11:52:12;819.03;;;768.83;;
1785;SDS011;890;48.158;11.540;2023-06-26T11:54:38;802.83;;;753.63;;
1785;SDS011;890;48.158;11.540;2023-06-26T11:57:05;812.23;;;760.93;;
1785;SDS011;890;48.158;11.540;2023-06-26T11:59:49;888.00;;;834.60;;
1785;SDS011;890;48.158;11.540;2023-06-26T12:02:15;896.47;;;842.13;;
1785;SDS011;890;48.158;11.540;2023-06-26T12:04:41;931.87;;;876.70;;
1785;SDS011;890;48.158;11.540;2023-06-26T12:07:08;1023.00;;;962.60;;
1785;SDS011;890;48.158;11.540;2023-06-26T12:09:45;976.30;;;918.27;;
1785;SDS011;890;48.158;11.540;2023-06-26T12:12:13;866.73;;;814.17;;
1785;SDS011;890;48.158;11.540;2023-06-26T12:14:41;888.23;;;832.63;;
1785;SDS011;890;48.158;11.540;2023-06-26T12:17:10;794.60;;;743.63;;
1785;SDS011;890;48.158;11.540;2023-06-26T12:19:44;838.80;;;785.93;;
1785;SDS011;890;48.158;11.540;2023-06-26T12:22:12;822.33;;;770.40;;
1785;SDS011;890;48.158;11.540;2023-06-26T12:24:38;818.23;;;767.40;;
1785;SDS011;890;48.158;11.540;2023-06-26T12:27:12;873.10;;;818.33;;
1785;SDS011;890;48.158;11.540;2023-06-26T12:29:40;869.13;;;815.57;;
1785;SDS011;890;48.158;11.540;2023-06-26T12:32:10;824.97;;;773.30;;
1785;SDS011;890;48.158;11.540;2023-06-26T12:34:37;838.77;;;787.60;;
1785;SDS011;890;48.158;11.540;2023-06-26T12:37:12;835.30;;;784.40;;
1785;SDS011;890;48.158;11.540;2023-06-26T12:39:49;845.17;;;793.40;;
1785;SDS011;890;48.158;11.540;2023-06-26T12:42:23;812.57;;;762.13;;
1785;SDS011;890;48.158;11.540;2023-06-26T12:44:51;802.73;;;752.53;;
1785;SDS011;890;48.158;11.540;2023-06-26T12:47:17;800.80;;;751.03;;
1785;SDS011;890;48.158;11.540;2023-06-26T12:49:50;799.80;;;748.90;;
1785;SDS011;890;48.158;11.540;2023-06-26T12:52:16;808.00;;;758.20;;
1785;SDS011;890;48.158;11.540;2023-06-26T12:54:45;1075.50;;;999.90;;
1785;SDS011;890;48.158;11.540;2023-06-26T12:57:12;1190.40;;;999.90;;
1785;SDS011;890;48.158;11.540;2023-06-26T12:59:39;1278.30;;;999.90;;
1785;SDS011;890;48.158;11.540;2023-06-26T13:02:05;1287.03;;;999.90;;
1785;SDS011;890;48.158;11.540;2023-06-26T13:04:31;1279.63;;;999.90;;
1785;SDS011;890;48.158;11.540;2023-06-26T13:06:57;1299.90;;;999.90;;
1785;SDS011;890;48.158;11.540;2023-06-26T13:09:24;1289.73;;;999.90;;
1785;SDS011;890;48.158;11.540;2023-06-26T13:11:53;1283.17;;;999.90;;
1785;SDS011;890;48.158;11.540;2023-06-26T13:14:19;1279.03;;;999.90;;
1785;SDS011;890;48.158;11.540;2023-06-26T13:16:45;1290.13;;;999.90;;
1785;SDS011;890;48.158;11.540;2023-06-26T13:19:11;1271.53;;;999.90;;
1785;SDS011;890;48.158;11.540;2023-06-26T13:21:37;1287.57;;;999.90;;
1785;SDS011;890;48.158;11.540;2023-06-26T13:24:03;1279.90;;;999.90;;
1785;SDS011;890;48.158;11.540;2023-06-26T13:26:29;1280.20;;;999.90;;
1785;SDS011;890;48.158;11.540;2023-06-26T13:28:55;1271.87;;;999.90;;
1785;SDS011;890;48.158;11.540;2023-06-26T13:31:21;1277.77;;;999.90;;
1785;SDS011;890;48.158;11.540;2023-06-26T13:33:47;1287.30;;;999.90;;
1785;SDS011;890;48.158;11.540;2023-06-26T13:36:19;1289.50;;;999.90;;
1785;SDS011;890;48.158;11.540;2023-06-26T13:38:46;1290.93;;;999.90;;
1785;SDS011;890;48.158;11.540;2023-06-26T13:41:14;1276.97;;;999.90;;
1785;SDS011;890;48.158;11.540;2023-06-26T13:43:39;1264.00;;;999.90;;
1785;SDS011;890;48.158;11.540;2023-06-26T13:46:05;1267.77;;;999.90;;
1785;SDS011;890;48.158;11.540;2023-06-26T13:48:31;1255.13;;;999.90;;
1785;SDS011;890;48.158;11.540;2023-06-26T13:50:58;1258.50;;;999.90;;
1785;SDS011;890;48.158;11.540;2023-06-26T13:53:24;1250.17;;;999.90;;
1785;SDS011;890;48.158;11.540;2023-06-26T13:55:49;1248.47;;;999.90;;
1785;SDS011;890;48.158;11.540;2023-06-26T13:58:15;1253.37;;;999.90;;
1785;SDS011;890;48.158;11.540;2023-06-26T14:00:40;1259.87;;;999.90;;
1785;SDS011;890;48.158;11.540;2023-06-26T14:03:09;1262.57;;;999.90;;
1785;SDS011;890;48.158;11.540;2023-06-26T14:05:35;1260.90;;;999.90;;
1785;SDS011;890;48.158;11.540;2023-06-26T14:08:03;1262.03;;;999.90;;
1785;SDS011;890;48.158;11.540;2023-06-26T14:10:30;1250.53;;;999.90;;
1785;SDS011;890;48.158;11.540;2023-06-26T14:12:56;1241.93;;;999.90;;
1785;SDS011;890;48.158;11.540;2023-06-26T14:15:21;1100.80;;;999.90;;
1785;SDS011;890;48.158;11.540;2023-06-26T14:17:47;1250.27;;;999.90;;
1785;SDS011;890;48.158;11.540;2023-06-26T14:20:15;1254.27;;;999.90;;
1785;SDS011;890;48.158;11.540;2023-06-26T14:22:42;1251.60;;;999.90;;